createdAt,value
2024-03-28T00:00:14.808Z,9.86
2024-03-28T00:01:14.903Z,9.88
2024-03-28T00:02:14.941Z,9.92
2024-03-28T00:03:15.015Z,9.93
2024-03-28T00:04:15.064Z,9.92
2024-03-28T00:05:15.079Z,9.86
2024-03-28T00:06:15.125Z,9.83
2024-03-28T00:07:15.209Z,9.56
2024-03-28T00:08:15.200Z,8.97
2024-03-28T00:09:15.223Z,8.79
2024-03-28T00:10:15.292Z,8.96
2024-03-28T00:11:15.279Z,9.10
2024-03-28T00:12:15.326Z,9.18
2024-03-28T00:13:15.373Z,9.25
2024-03-28T00:14:15.402Z,9.35
2024-03-28T00:15:15.444Z,9.42
2024-03-28T00:16:15.490Z,9.40
2024-03-28T00:17:15.501Z,9.27
2024-03-28T00:18:15.538Z,8.82
2024-03-28T00:19:16.226Z,8.41
2024-03-28T00:20:16.608Z,8.25
2024-03-28T00:21:15.616Z,8.28
2024-03-28T00:22:15.640Z,8.39
2024-03-28T00:23:15.632Z,8.35
2024-03-28T00:24:15.618Z,8.58
2024-03-28T00:25:15.700Z,8.70
2024-03-28T00:26:15.613Z,8.69
2024-03-28T00:27:15.620Z,8.79
2024-03-28T00:28:15.660Z,8.93
2024-03-28T00:29:15.620Z,9.07
2024-03-28T00:30:15.608Z,9.17
2024-03-28T00:31:15.667Z,9.26
2024-03-28T00:32:15.706Z,9.33
2024-03-28T00:33:18.891Z,9.43
2024-03-28T00:34:15.804Z,9.47
2024-03-28T00:35:15.749Z,9.50
2024-03-28T00:36:15.743Z,9.50
2024-03-28T00:37:15.802Z,9.52
2024-03-28T00:38:15.770Z,9.50
2024-03-28T00:39:15.742Z,9.51
2024-03-28T00:40:15.759Z,9.53
2024-03-28T00:41:15.743Z,9.29
2024-03-28T00:42:15.752Z,9.00
2024-03-28T00:43:15.839Z,9.00
2024-03-28T00:44:15.782Z,8.92
2024-03-28T00:45:15.780Z,8.99
2024-03-28T00:46:15.795Z,9.00
2024-03-28T00:47:15.785Z,8.99
2024-03-28T00:48:15.763Z,9.01
2024-03-28T00:49:15.776Z,9.00
2024-03-28T00:50:15.785Z,8.93
2024-03-28T00:51:15.782Z,9.06
2024-03-28T00:52:15.800Z,9.01
2024-03-28T00:53:15.781Z,8.82
2024-03-28T00:54:15.798Z,8.81
2024-03-28T00:55:15.873Z,8.94
2024-03-28T00:56:15.804Z,9.00
2024-03-28T00:57:15.789Z,9.04
2024-03-28T00:58:15.814Z,9.02
2024-03-28T00:59:15.784Z,9.00
2024-03-28T01:00:15.805Z,8.88
2024-03-28T01:01:15.857Z,8.72
2024-03-28T01:02:15.823Z,8.69
2024-03-28T01:03:15.836Z,8.81
2024-03-28T01:04:15.885Z,8.87
2024-03-28T01:05:15.814Z,8.96
2024-03-28T01:06:15.825Z,9.06
2024-03-28T01:07:15.835Z,9.13
2024-03-28T01:08:15.824Z,9.17
2024-03-28T01:09:15.810Z,9.20
2024-03-28T01:10:15.850Z,9.21
2024-03-28T01:11:15.828Z,9.18
2024-03-28T01:12:15.819Z,9.21
2024-03-28T01:13:15.872Z,9.15
2024-03-28T01:14:15.803Z,8.97
2024-03-28T01:15:15.830Z,9.01
2024-03-28T01:16:15.850Z,9.08
2024-03-28T01:17:15.851Z,9.03
2024-03-28T01:18:15.827Z,9.04
2024-03-28T01:19:15.864Z,8.97
2024-03-28T01:20:15.817Z,8.70
2024-03-28T01:21:15.855Z,8.28
2024-03-28T01:22:15.866Z,7.77
2024-03-28T01:23:15.839Z,7.52
2024-03-28T01:24:15.828Z,7.39
2024-03-28T01:25:15.872Z,7.50
2024-03-28T01:26:15.849Z,7.74
2024-03-28T01:27:15.829Z,8.01
2024-03-28T01:28:15.860Z,8.09
2024-03-28T01:29:15.851Z,8.12
2024-03-28T01:30:15.845Z,8.21
2024-03-28T01:31:15.881Z,8.29
2024-03-28T01:32:15.853Z,8.44
2024-03-28T01:33:15.858Z,8.51
2024-03-28T01:34:15.950Z,8.49
2024-03-28T01:35:15.983Z,8.52
2024-03-28T01:36:16.013Z,8.57
2024-03-28T01:37:16.035Z,8.64
2024-03-28T01:38:16.102Z,8.70
2024-03-28T01:39:16.113Z,8.71
2024-03-28T01:40:16.187Z,8.71
2024-03-28T01:41:16.185Z,8.39
2024-03-28T01:42:16.220Z,7.86
2024-03-28T01:43:16.326Z,7.59
2024-03-28T01:44:16.305Z,7.50
2024-03-28T01:45:16.474Z,7.60
2024-03-28T01:46:20.035Z,7.85
2024-03-28T01:47:35.512Z,8.05
2024-03-28T01:48:17.604Z,8.18
2024-03-28T01:49:16.551Z,8.30
2024-03-28T01:50:16.546Z,8.36
2024-03-28T01:51:16.566Z,8.40
2024-03-28T01:52:16.591Z,8.34
2024-03-28T01:53:16.565Z,8.37
2024-03-28T01:54:16.647Z,8.37
2024-03-28T01:55:16.590Z,8.37
2024-03-28T01:56:16.580Z,8.31
2024-03-28T01:57:16.545Z,8.28
2024-03-28T01:58:16.572Z,8.31
2024-03-28T01:59:16.587Z,8.30
2024-03-28T02:00:16.561Z,8.35
2024-03-28T02:01:16.604Z,8.35
2024-03-28T02:02:16.589Z,8.33
2024-03-28T02:03:16.595Z,8.36
2024-03-28T02:04:16.637Z,8.41
2024-03-28T02:05:16.592Z,8.46
2024-03-28T02:06:16.576Z,8.41
2024-03-28T02:07:16.621Z,8.40
2024-03-28T02:08:16.598Z,8.38
2024-03-28T02:09:16.592Z,8.31
2024-03-28T02:10:16.637Z,8.26
2024-03-28T02:11:16.616Z,8.17
2024-03-28T02:12:16.604Z,8.15
2024-03-28T02:13:16.617Z,8.14
2024-03-28T02:14:16.596Z,8.14
2024-03-28T02:15:16.594Z,8.15
2024-03-28T02:16:16.612Z,8.16
2024-03-28T02:17:16.608Z,8.11
2024-03-28T02:18:16.610Z,8.06
2024-03-28T02:19:16.635Z,8.07
2024-03-28T02:20:16.639Z,7.97
2024-03-28T02:21:16.633Z,7.85
2024-03-28T02:22:16.664Z,7.64
2024-03-28T02:23:16.604Z,7.43
2024-03-28T02:24:16.617Z,7.51
2024-03-28T02:25:16.695Z,7.57
2024-03-28T02:26:16.718Z,7.57
2024-03-28T02:27:16.727Z,7.22
2024-03-28T02:28:16.832Z,7.26
2024-03-28T02:29:16.852Z,7.28
2024-03-28T02:30:16.894Z,7.15
2024-03-28T02:31:16.990Z,7.21
2024-03-28T02:32:16.994Z,7.18
2024-03-28T02:33:17.057Z,7.14
2024-03-28T02:34:17.128Z,7.25
2024-03-28T02:35:17.138Z,7.32
2024-03-28T02:36:17.140Z,7.37
2024-03-28T02:37:17.177Z,7.25
2024-03-28T02:38:17.252Z,7.13
2024-03-28T02:39:17.316Z,6.99
2024-03-28T02:40:17.353Z,6.87
2024-03-28T02:41:17.399Z,6.95
2024-03-28T02:42:17.428Z,7.07
2024-03-28T02:43:17.459Z,7.19
2024-03-28T02:44:17.497Z,7.29
2024-03-28T02:45:17.523Z,7.25
2024-03-28T02:46:17.576Z,7.23
2024-03-28T02:47:17.606Z,7.14
2024-03-28T02:48:17.674Z,7.26
2024-03-28T02:49:17.694Z,7.34
2024-03-28T02:50:17.752Z,7.38
2024-03-28T02:51:17.768Z,7.42
2024-03-28T02:52:17.844Z,7.48
2024-03-28T02:53:17.853Z,7.46
2024-03-28T02:54:17.866Z,7.45
2024-03-28T02:55:17.917Z,7.42
2024-03-28T02:56:17.963Z,7.37
2024-03-28T02:57:18.030Z,7.30
2024-03-28T02:58:18.054Z,7.21
2024-03-28T02:59:18.099Z,7.20
2024-03-28T03:00:18.167Z,7.21
2024-03-28T03:01:18.221Z,6.96
2024-03-28T03:02:18.213Z,6.97
2024-03-28T03:03:18.259Z,7.04
2024-03-28T03:04:18.342Z,7.13
2024-03-28T03:05:18.351Z,7.13
2024-03-28T03:06:18.380Z,7.03
2024-03-28T03:07:18.464Z,6.95
2024-03-28T03:08:18.493Z,6.83
2024-03-28T03:09:18.510Z,6.77
2024-03-28T03:10:18.597Z,6.77
2024-03-28T03:11:18.649Z,6.78
2024-03-28T03:12:18.683Z,6.79
2024-03-28T03:13:18.728Z,6.89
2024-03-28T03:14:18.799Z,6.99
2024-03-28T03:15:18.813Z,7.06
2024-03-28T03:16:18.893Z,7.09
2024-03-28T03:17:18.913Z,7.11
2024-03-28T03:18:18.948Z,6.89
2024-03-28T03:19:18.998Z,6.66
2024-03-28T03:20:19.044Z,6.67
2024-03-28T03:21:19.088Z,6.59
2024-03-28T03:22:19.100Z,6.61
2024-03-28T03:23:19.155Z,6.54
2024-03-28T03:24:19.242Z,6.65
2024-03-28T03:25:19.335Z,6.76
2024-03-28T03:26:19.319Z,6.81
2024-03-28T03:27:19.366Z,6.86
2024-03-28T03:28:19.445Z,6.94
2024-03-28T03:29:19.442Z,6.73
2024-03-28T03:30:19.464Z,6.53
2024-03-28T03:31:19.644Z,6.64
2024-03-28T03:32:19.622Z,6.56
2024-03-28T03:33:19.642Z,6.44
2024-03-28T03:34:19.732Z,6.45
2024-03-28T03:35:19.748Z,6.49
2024-03-28T03:36:19.774Z,6.54
2024-03-28T03:37:19.784Z,6.63
2024-03-28T03:38:19.836Z,6.67
2024-03-28T03:39:19.864Z,6.66
2024-03-28T03:40:19.937Z,6.59
2024-03-28T03:41:19.956Z,6.56
2024-03-28T03:42:19.998Z,6.41
2024-03-28T03:43:20.050Z,6.47
2024-03-28T03:44:20.045Z,6.53
2024-03-28T03:45:20.117Z,6.46
2024-03-28T03:46:20.172Z,6.48
2024-03-28T03:47:20.161Z,6.49
2024-03-28T03:48:20.191Z,6.53
2024-03-28T03:49:20.240Z,6.47
2024-03-28T03:50:20.241Z,6.52
2024-03-28T03:51:20.287Z,6.53
2024-03-28T03:52:20.386Z,6.59
2024-03-28T03:53:20.420Z,6.61
2024-03-28T03:54:20.448Z,6.62
2024-03-28T03:55:20.514Z,6.53
2024-03-28T03:56:20.515Z,6.55
2024-03-28T03:57:20.591Z,6.58
2024-03-28T03:58:20.698Z,6.61
2024-03-28T03:59:20.719Z,6.62
2024-03-28T04:00:20.740Z,6.64
2024-03-28T04:01:20.792Z,6.62
2024-03-28T04:02:20.814Z,6.70
2024-03-28T04:03:20.855Z,6.75
2024-03-28T04:04:20.913Z,6.80
2024-03-28T04:05:20.950Z,6.69
2024-03-28T04:06:20.993Z,6.70
2024-03-28T04:07:21.061Z,6.63
2024-03-28T04:08:21.068Z,6.45
2024-03-28T04:09:21.138Z,6.30
2024-03-28T04:10:21.181Z,6.36
2024-03-28T04:11:21.190Z,6.41
2024-03-28T04:12:21.238Z,6.44
2024-03-28T04:13:21.280Z,6.46
2024-03-28T04:14:21.315Z,6.43
2024-03-28T04:15:21.271Z,6.36
2024-03-28T04:16:21.392Z,6.39
2024-03-28T04:17:21.361Z,6.40
2024-03-28T04:18:21.435Z,6.38
2024-03-28T04:19:21.480Z,6.38
2024-03-28T04:20:21.491Z,6.38
2024-03-28T04:21:21.553Z,6.36
2024-03-28T04:22:21.585Z,6.32
2024-03-28T04:23:21.598Z,6.28
2024-03-28T04:24:21.636Z,6.21
2024-03-28T04:25:21.751Z,6.16
2024-03-28T04:26:21.748Z,6.13
2024-03-28T04:27:21.809Z,6.09
2024-03-28T04:28:21.871Z,6.03
2024-03-28T04:29:21.867Z,6.04
2024-03-28T04:30:21.886Z,6.12
2024-03-28T04:31:21.974Z,6.21
2024-03-28T04:32:21.965Z,6.27
2024-03-28T04:33:22.056Z,6.23
2024-03-28T04:34:22.078Z,6.24
2024-03-28T04:35:22.097Z,6.34
2024-03-28T04:36:22.171Z,6.43
2024-03-28T04:37:22.225Z,6.52
2024-03-28T04:38:22.264Z,6.53
2024-03-28T04:39:22.247Z,6.44
2024-03-28T04:40:22.323Z,6.32
2024-03-28T04:41:22.297Z,6.28
2024-03-28T04:42:22.335Z,6.24
2024-03-28T04:43:22.396Z,6.18
2024-03-28T04:44:22.407Z,6.20
2024-03-28T04:45:22.520Z,6.16
2024-03-28T04:46:22.522Z,6.10
2024-03-28T04:47:22.527Z,6.02
2024-03-28T04:48:22.577Z,5.96
2024-03-28T04:49:22.676Z,5.94
2024-03-28T04:50:22.617Z,5.94
2024-03-28T04:51:22.664Z,5.92
2024-03-28T04:52:22.669Z,5.90
2024-03-28T04:53:22.707Z,5.83
2024-03-28T04:54:22.789Z,5.89
2024-03-28T04:55:24.546Z,5.92
2024-03-28T04:56:22.821Z,5.96
2024-03-28T04:57:30.353Z,5.97
2024-03-28T04:58:30.376Z,6.02
2024-03-28T04:59:30.541Z,6.09
2024-03-28T05:00:30.660Z,6.13
2024-03-28T05:01:30.782Z,6.11
2024-03-28T05:02:30.968Z,6.11
2024-03-28T05:03:31.133Z,6.14
2024-03-28T05:04:31.237Z,6.15
2024-03-28T05:05:31.350Z,6.18
2024-03-28T05:06:31.547Z,6.19
2024-03-28T05:07:31.707Z,6.21
2024-03-28T05:08:31.914Z,6.22
2024-03-28T05:09:31.885Z,6.24
2024-03-28T05:10:31.927Z,6.28
2024-03-28T05:11:32.005Z,6.25
2024-03-28T05:12:31.901Z,6.23
2024-03-28T05:13:31.911Z,6.23
2024-03-28T05:14:31.912Z,6.21
2024-03-28T05:15:31.915Z,6.19
2024-03-28T05:16:31.939Z,6.08
2024-03-28T05:17:31.925Z,6.15
2024-03-28T05:18:31.941Z,6.14
2024-03-28T05:19:31.915Z,6.13
2024-03-28T05:20:31.917Z,6.12
2024-03-28T05:21:31.908Z,6.08
2024-03-28T05:22:31.931Z,6.07
2024-03-28T05:23:31.916Z,6.12
2024-03-28T05:24:31.933Z,6.15
2024-03-28T05:25:31.928Z,6.02
2024-03-28T05:26:31.978Z,6.00
2024-03-28T05:27:31.991Z,6.05
2024-03-28T05:28:32.104Z,6.08
2024-03-28T05:29:32.158Z,6.07
2024-03-28T05:30:32.146Z,6.13
2024-03-28T05:31:32.181Z,6.14
2024-03-28T05:32:32.276Z,6.14
2024-03-28T05:33:32.286Z,6.16
2024-03-28T05:34:32.339Z,6.20
2024-03-28T05:35:32.346Z,6.28
2024-03-28T05:36:32.387Z,6.30
2024-03-28T05:37:32.457Z,6.37
2024-03-28T05:38:32.490Z,6.43
2024-03-28T05:39:32.576Z,6.50
2024-03-28T05:40:32.595Z,6.51
2024-03-28T05:41:32.621Z,6.59
2024-03-28T05:42:32.660Z,6.56
2024-03-28T05:43:32.709Z,6.52
2024-03-28T05:44:32.729Z,6.56
2024-03-28T05:45:32.779Z,6.61
2024-03-28T05:46:32.863Z,6.65
2024-03-28T05:47:32.860Z,6.67
2024-03-28T05:48:32.936Z,6.64
2024-03-28T05:49:32.961Z,6.58
2024-03-28T05:50:32.999Z,6.50
2024-03-28T05:51:33.081Z,6.38
2024-03-28T05:52:33.076Z,6.44
2024-03-28T05:53:33.133Z,6.54
2024-03-28T05:54:33.162Z,6.59
2024-03-28T05:55:33.333Z,6.59
2024-03-28T05:56:33.291Z,6.62
2024-03-28T05:57:33.362Z,6.60
2024-03-28T05:58:33.347Z,6.62
2024-03-28T05:59:33.443Z,6.65
2024-03-28T06:00:33.495Z,6.62
2024-03-28T06:01:33.574Z,6.57
2024-03-28T06:02:33.493Z,6.53
2024-03-28T06:03:33.588Z,6.48
2024-03-28T06:04:33.620Z,6.48
2024-03-28T06:05:33.666Z,6.47
2024-03-28T06:06:33.693Z,6.50
2024-03-28T06:07:33.710Z,6.54
2024-03-28T06:08:33.744Z,6.52
2024-03-28T06:09:33.793Z,6.57
2024-03-28T06:10:33.867Z,6.56
2024-03-28T06:11:33.873Z,6.59
2024-03-28T06:12:33.927Z,6.54
2024-03-28T06:13:33.924Z,6.59
2024-03-28T06:14:33.950Z,6.63
2024-03-28T06:15:34.030Z,6.62
2024-03-28T06:16:34.429Z,6.59
2024-03-28T06:17:34.074Z,6.63
2024-03-28T06:18:34.096Z,6.59
2024-03-28T06:19:34.161Z,6.60
2024-03-28T06:20:34.200Z,6.69
2024-03-28T06:21:34.275Z,6.67
2024-03-28T06:22:34.371Z,6.71
2024-03-28T06:23:34.272Z,6.76
2024-03-28T06:24:34.315Z,6.78
2024-03-28T06:25:34.382Z,6.82
2024-03-28T06:26:34.474Z,6.83
2024-03-28T06:27:34.497Z,6.85
2024-03-28T06:28:34.469Z,6.88
2024-03-28T06:29:34.543Z,6.88
2024-03-28T06:30:34.599Z,6.89
2024-03-28T06:31:34.634Z,6.96
2024-03-28T06:32:34.731Z,6.96
2024-03-28T06:33:34.754Z,7.01
2024-03-28T06:34:34.800Z,7.08
2024-03-28T06:35:34.792Z,7.10
2024-03-28T06:36:34.837Z,7.01
2024-03-28T06:37:34.871Z,7.01
2024-03-28T06:38:34.912Z,7.01
2024-03-28T06:39:34.985Z,7.03
2024-03-28T06:40:34.952Z,7.01
2024-03-28T06:41:35.011Z,7.04
2024-03-28T06:42:35.142Z,7.09
2024-03-28T06:43:35.068Z,7.17
2024-03-28T06:44:35.167Z,7.22
2024-03-28T06:45:35.173Z,7.25
2024-03-28T06:46:35.199Z,7.35
2024-03-28T06:47:35.239Z,7.28
2024-03-28T06:48:35.281Z,7.43
2024-03-28T06:49:35.331Z,7.57
2024-03-28T06:50:35.358Z,7.66
2024-03-28T06:51:35.398Z,7.77
2024-03-28T06:52:35.489Z,7.82
2024-03-28T06:53:35.534Z,7.91
2024-03-28T06:54:35.568Z,7.96
2024-03-28T06:55:35.599Z,7.95
2024-03-28T06:56:35.643Z,8.04
2024-03-28T06:57:35.668Z,8.14
2024-03-28T06:58:35.680Z,8.21
2024-03-28T06:59:35.726Z,8.23
2024-03-28T07:00:35.780Z,8.04
2024-03-28T07:01:35.828Z,8.11
2024-03-28T07:02:35.887Z,8.18
2024-03-28T07:03:35.896Z,8.25
2024-03-28T07:04:35.927Z,8.19
2024-03-28T07:05:35.962Z,8.07
2024-03-28T07:06:36.009Z,8.09
2024-03-28T07:07:36.040Z,8.23
2024-03-28T07:08:36.112Z,8.27
2024-03-28T07:09:36.136Z,8.28
2024-03-28T07:10:36.197Z,8.32
2024-03-28T07:11:36.258Z,8.32
2024-03-28T07:12:36.267Z,8.29
2024-03-28T07:13:36.316Z,8.28
2024-03-28T07:14:36.350Z,8.33
2024-03-28T07:15:36.393Z,8.43
2024-03-28T07:16:36.439Z,8.39
2024-03-28T07:17:36.478Z,8.35
2024-03-28T07:18:36.573Z,8.35
2024-03-28T07:19:36.556Z,8.44
2024-03-28T07:20:36.612Z,8.53
2024-03-28T07:21:36.617Z,8.69
2024-03-28T07:22:36.673Z,8.78
2024-03-28T07:23:36.706Z,8.74
2024-03-28T07:24:36.761Z,8.96
2024-03-28T07:25:36.778Z,9.10
2024-03-28T07:26:37.025Z,9.19
2024-03-28T07:27:36.859Z,9.25
2024-03-28T07:28:36.920Z,9.18
2024-03-28T07:29:36.977Z,9.12
2024-03-28T07:30:37.045Z,9.21
2024-03-28T07:31:37.039Z,9.56
2024-03-28T07:32:37.090Z,9.83
2024-03-28T07:33:37.138Z,10.07
2024-03-28T07:34:37.151Z,10.26
2024-03-28T07:35:37.205Z,10.47
2024-03-28T07:36:37.229Z,10.67
2024-03-28T07:37:37.279Z,10.83
2024-03-28T07:38:37.325Z,10.89
2024-03-28T07:39:37.356Z,11.03
2024-03-28T07:40:37.405Z,10.98
2024-03-28T07:41:37.420Z,11.09
2024-03-28T07:42:37.454Z,11.07
2024-03-28T07:43:37.519Z,11.11
2024-03-28T07:44:37.531Z,11.22
2024-03-28T07:45:37.595Z,11.37
2024-03-28T07:46:37.609Z,11.44
2024-03-28T07:47:37.694Z,11.64
2024-03-28T07:48:37.677Z,11.54
2024-03-28T07:49:37.708Z,11.58
2024-03-28T07:50:37.738Z,11.58
2024-03-28T07:51:37.813Z,11.53
2024-03-28T07:52:37.887Z,11.61
2024-03-28T07:53:37.904Z,11.51
2024-03-28T07:54:37.930Z,11.42
2024-03-28T07:55:37.960Z,11.49
2024-03-28T07:56:38.041Z,11.58
2024-03-28T07:57:38.058Z,11.59
2024-03-28T07:58:38.143Z,11.50
2024-03-28T07:59:38.164Z,11.71
2024-03-28T08:00:38.177Z,11.92
2024-03-28T08:01:38.250Z,12.02
2024-03-28T08:02:38.280Z,11.90
2024-03-28T08:03:39.554Z,11.93
2024-03-28T08:04:38.371Z,12.01
2024-03-28T08:05:38.406Z,12.11
2024-03-28T08:06:38.456Z,12.32
2024-03-28T08:07:38.502Z,12.64
2024-03-28T08:08:38.558Z,12.61
2024-03-28T08:09:38.593Z,12.78
2024-03-28T08:10:38.629Z,12.87
2024-03-28T08:11:38.693Z,12.58
2024-03-28T08:12:38.737Z,12.49
2024-03-28T08:13:38.757Z,12.48
2024-03-28T08:14:38.798Z,12.57
2024-03-28T08:15:38.880Z,12.53
2024-03-28T08:16:38.934Z,12.45
2024-03-28T08:17:38.954Z,12.38
2024-03-28T08:18:38.968Z,12.28
2024-03-28T08:19:39.009Z,12.27
2024-03-28T08:20:39.078Z,11.97
2024-03-28T08:21:39.136Z,12.08
2024-03-28T08:22:39.165Z,11.92
2024-03-28T08:23:39.195Z,12.00
2024-03-28T08:24:39.243Z,12.27
2024-03-28T08:25:39.313Z,12.45
2024-03-28T08:26:39.322Z,12.33
2024-03-28T08:27:39.350Z,12.27
2024-03-28T08:28:39.392Z,12.43
2024-03-28T08:29:39.438Z,12.34
2024-03-28T08:30:39.483Z,12.52
2024-03-28T08:31:39.499Z,12.55
2024-03-28T08:32:39.567Z,12.16
2024-03-28T08:33:39.604Z,12.15
2024-03-28T08:34:39.622Z,12.07
2024-03-28T08:35:39.695Z,12.18
2024-03-28T08:36:39.728Z,12.32
2024-03-28T08:37:39.763Z,12.52
2024-03-28T08:38:39.818Z,12.55
2024-03-28T08:39:39.836Z,12.65
2024-03-28T08:40:39.862Z,12.49
2024-03-28T08:41:39.934Z,12.41
2024-03-28T08:42:39.974Z,12.33
2024-03-28T08:43:39.999Z,12.48
2024-03-28T08:44:40.053Z,12.40
2024-03-28T08:45:40.103Z,12.45
2024-03-28T08:46:40.130Z,12.52
2024-03-28T08:47:40.129Z,12.47
2024-03-28T08:48:40.180Z,12.58
2024-03-28T08:49:40.229Z,12.81
2024-03-28T08:50:40.284Z,12.76
2024-03-28T08:51:40.319Z,12.66
2024-03-28T08:52:40.358Z,12.72
2024-03-28T08:53:40.383Z,12.79
2024-03-28T08:54:40.433Z,12.54
2024-03-28T08:55:40.463Z,12.55
2024-03-28T08:56:40.512Z,12.53
2024-03-28T08:57:40.580Z,12.69
2024-03-28T08:58:40.649Z,12.65
2024-03-28T08:59:40.656Z,12.63
2024-03-28T09:00:40.715Z,12.64
2024-03-28T09:01:40.778Z,12.68
2024-03-28T09:02:40.943Z,12.86
2024-03-28T09:03:40.861Z,12.96
2024-03-28T09:04:40.910Z,12.70
2024-03-28T09:05:40.934Z,12.70
2024-03-28T09:06:40.967Z,12.79
2024-03-28T09:07:41.000Z,12.91
2024-03-28T09:08:41.048Z,12.65
2024-03-28T09:09:41.067Z,12.19
2024-03-28T09:10:41.156Z,12.09
2024-03-28T09:11:41.195Z,11.99
2024-03-28T09:12:41.197Z,12.11
2024-03-28T09:13:41.254Z,12.34
2024-03-28T09:14:41.293Z,12.49
2024-03-28T09:15:41.380Z,12.49
2024-03-28T09:16:41.406Z,12.15
2024-03-28T09:17:41.443Z,12.07
2024-03-28T09:18:41.478Z,12.12
2024-03-28T09:19:41.528Z,12.30
2024-03-28T09:20:41.582Z,12.53
2024-03-28T09:21:41.600Z,12.76
2024-03-28T09:22:41.652Z,12.69
2024-03-28T09:23:41.656Z,12.44
2024-03-28T09:24:41.694Z,12.39
2024-03-28T09:25:41.729Z,12.58
2024-03-28T09:26:44.786Z,12.79
2024-03-28T09:27:41.792Z,12.63
2024-03-28T09:28:41.822Z,12.87
2024-03-28T09:29:41.820Z,12.57
2024-03-28T09:30:41.812Z,12.48
2024-03-28T09:31:41.842Z,12.43
2024-03-28T09:32:41.829Z,12.65
2024-03-28T09:33:41.803Z,12.35
2024-03-28T09:34:41.823Z,12.22
2024-03-28T09:35:41.831Z,12.14
2024-03-28T09:36:41.836Z,12.41
2024-03-28T09:37:41.808Z,12.38
2024-03-28T09:38:41.823Z,12.39
2024-03-28T09:39:41.820Z,12.28
2024-03-28T09:40:41.824Z,12.46
2024-03-28T09:41:41.842Z,12.59
2024-03-28T09:42:41.839Z,12.69
2024-03-28T09:43:41.835Z,12.41
2024-03-28T09:44:41.823Z,12.28
2024-03-28T09:45:41.825Z,12.27
2024-03-28T09:46:41.829Z,12.44
2024-03-28T09:47:41.889Z,12.55
2024-03-28T09:48:41.839Z,12.74
2024-03-28T09:49:41.835Z,12.62
2024-03-28T09:50:41.843Z,12.50
2024-03-28T09:51:41.843Z,12.37
2024-03-28T09:52:41.834Z,12.23
2024-03-28T09:53:41.841Z,12.35
2024-03-28T09:54:41.857Z,12.33
2024-03-28T09:55:41.872Z,12.24
2024-03-28T09:56:41.846Z,12.22
2024-03-28T09:57:41.865Z,12.25
2024-03-28T09:58:41.843Z,12.39
2024-03-28T09:59:41.867Z,12.51
2024-03-28T10:00:41.888Z,12.43
2024-03-28T10:01:41.849Z,12.48
2024-03-28T10:02:41.861Z,12.61
2024-03-28T10:03:41.886Z,12.46
2024-03-28T10:04:41.862Z,12.61
2024-03-28T10:05:41.880Z,12.74
2024-03-28T10:06:41.847Z,12.65
2024-03-28T10:07:41.883Z,12.47
2024-03-28T10:08:41.882Z,12.73
2024-03-28T10:09:41.843Z,12.88
2024-03-28T10:10:41.864Z,12.92
2024-03-28T10:11:41.848Z,12.79
2024-03-28T10:12:41.848Z,12.75
2024-03-28T10:13:41.871Z,12.98
2024-03-28T10:14:41.870Z,13.14
2024-03-28T10:15:41.875Z,13.18
2024-03-28T10:16:41.884Z,12.90
2024-03-28T10:17:41.911Z,12.82
2024-03-28T10:18:41.874Z,12.47
2024-03-28T10:19:41.903Z,12.78
2024-03-28T10:20:41.913Z,12.68
2024-03-28T10:21:41.941Z,12.89
2024-03-28T10:22:41.895Z,12.75
2024-03-28T10:23:41.887Z,12.70
2024-03-28T10:24:41.891Z,12.58
2024-03-28T10:25:41.920Z,12.66
2024-03-28T10:26:41.897Z,12.97
2024-03-28T10:27:41.903Z,12.50
2024-03-28T10:28:41.930Z,12.61
2024-03-28T10:29:41.914Z,12.65
2024-03-28T10:30:41.926Z,12.88
2024-03-28T10:31:41.928Z,13.07
2024-03-28T10:32:41.912Z,12.70
2024-03-28T10:33:41.936Z,12.48
2024-03-28T10:34:42.490Z,12.42
2024-03-28T10:35:43.009Z,12.71
2024-03-28T10:36:42.062Z,12.40
2024-03-28T10:37:54.708Z,12.38
2024-03-28T10:38:43.128Z,12.31
2024-03-28T10:39:42.117Z,12.36
2024-03-28T10:40:42.161Z,12.46
2024-03-28T10:41:42.132Z,12.73
2024-03-28T10:42:42.112Z,12.96
2024-03-28T10:43:42.119Z,12.46
2024-03-28T10:44:42.113Z,12.45
2024-03-28T10:45:42.122Z,12.34
2024-03-28T10:46:42.124Z,12.53
2024-03-28T10:47:42.136Z,12.59
2024-03-28T10:48:42.139Z,12.67
2024-03-28T10:49:44.124Z,12.68
2024-03-28T10:50:42.164Z,12.51
2024-03-28T10:51:42.154Z,12.35
2024-03-28T10:52:42.145Z,12.66
2024-03-28T10:53:42.134Z,13.09
2024-03-28T10:54:42.142Z,13.32
2024-03-28T10:55:42.159Z,13.25
2024-03-28T10:56:42.193Z,13.34
2024-03-28T10:57:42.157Z,13.39
2024-03-28T10:58:42.151Z,13.52
2024-03-28T10:59:42.145Z,13.97
2024-03-28T11:00:42.208Z,14.16
2024-03-28T11:01:42.180Z,13.68
2024-03-28T11:02:42.178Z,13.46
2024-03-28T11:03:42.170Z,13.41
2024-03-28T11:04:42.166Z,13.28
2024-03-28T11:05:42.186Z,13.30
2024-03-28T11:06:42.177Z,13.24
2024-03-28T11:07:42.182Z,13.30
2024-03-28T11:08:42.205Z,13.10
2024-03-28T11:09:42.181Z,13.10
2024-03-28T11:10:42.180Z,13.13
2024-03-28T11:11:42.183Z,13.33
2024-03-28T11:12:42.186Z,13.35
2024-03-28T11:13:42.186Z,13.27
2024-03-28T11:14:42.198Z,13.25
2024-03-28T11:15:42.205Z,13.29
2024-03-28T11:16:42.210Z,13.72
2024-03-28T11:17:42.220Z,13.70
2024-03-28T11:18:42.249Z,13.63
2024-03-28T11:19:42.300Z,13.29
2024-03-28T11:20:42.338Z,13.58
2024-03-28T11:21:42.336Z,13.73
2024-03-28T11:22:42.397Z,13.34
2024-03-28T11:23:42.390Z,13.24
2024-03-28T11:24:42.460Z,13.47
2024-03-28T11:25:42.495Z,13.37
2024-03-28T11:26:42.521Z,13.48
2024-03-28T11:27:42.528Z,13.52
2024-03-28T11:28:42.565Z,13.41
2024-03-28T11:29:42.599Z,13.43
2024-03-28T11:30:42.649Z,13.63
2024-03-28T11:31:45.460Z,13.71
2024-03-28T11:32:42.741Z,13.57
2024-03-28T11:33:42.658Z,13.19
2024-03-28T11:34:42.667Z,13.32
2024-03-28T11:35:42.678Z,13.21
2024-03-28T11:36:42.716Z,13.37
2024-03-28T11:37:42.742Z,13.08
2024-03-28T11:38:42.708Z,12.99
2024-03-28T11:39:42.697Z,12.85
2024-03-28T11:40:42.703Z,13.03
2024-03-28T11:41:42.701Z,13.31
2024-03-28T11:42:46.742Z,13.30
2024-03-28T11:43:42.712Z,13.51
2024-03-28T11:44:42.696Z,13.41
2024-03-28T11:45:42.693Z,13.44
2024-03-28T11:46:42.710Z,13.49
2024-03-28T11:47:42.706Z,13.57
2024-03-28T11:48:42.715Z,13.58
2024-03-28T11:49:42.734Z,13.79
2024-03-28T11:50:42.705Z,13.67
2024-03-28T11:51:42.703Z,13.58
2024-03-28T11:52:42.694Z,13.70
2024-03-28T11:53:49.921Z,13.87
2024-03-28T11:54:43.723Z,14.00
2024-03-28T11:55:42.722Z,13.82
2024-03-28T11:56:42.757Z,13.97
2024-03-28T11:57:42.718Z,13.91
2024-03-28T11:58:42.722Z,13.66
2024-03-28T11:59:42.739Z,13.79
2024-03-28T12:00:42.718Z,13.99
2024-03-28T12:01:42.757Z,14.27
2024-03-28T12:02:42.738Z,14.56
2024-03-28T12:03:42.758Z,14.60
2024-03-28T12:04:42.757Z,14.81
2024-03-28T12:05:42.749Z,14.91
2024-03-28T12:06:42.770Z,14.90
2024-03-28T12:07:42.893Z,14.31
2024-03-28T12:08:43.094Z,14.16
2024-03-28T12:09:42.950Z,14.45
2024-03-28T12:10:43.053Z,14.65
2024-03-28T12:11:43.029Z,14.93
2024-03-28T12:12:43.106Z,15.25
2024-03-28T12:13:43.123Z,15.48
2024-03-28T12:14:43.183Z,15.53
2024-03-28T12:15:43.237Z,15.41
2024-03-28T12:16:44.021Z,15.56
2024-03-28T12:17:43.300Z,15.64
2024-03-28T12:18:43.338Z,15.75
2024-03-28T12:19:43.365Z,15.70
2024-03-28T12:20:43.391Z,15.61
2024-03-28T12:21:43.453Z,15.38
2024-03-28T12:22:43.487Z,15.12
2024-03-28T12:23:43.509Z,15.08
2024-03-28T12:24:43.561Z,14.94
2024-03-28T12:25:43.572Z,14.19
2024-03-28T12:26:43.561Z,14.29
2024-03-28T12:27:43.590Z,14.26
2024-03-28T12:28:43.634Z,14.29
2024-03-28T12:29:43.718Z,14.19
2024-03-28T12:30:43.731Z,14.34
2024-03-28T12:31:43.753Z,14.37
2024-03-28T12:32:43.849Z,14.47
2024-03-28T12:33:43.870Z,14.35
2024-03-28T12:34:43.922Z,14.13
2024-03-28T12:35:43.951Z,13.91
2024-03-28T12:36:44.007Z,13.67
2024-03-28T12:37:43.996Z,13.61
2024-03-28T12:38:44.042Z,13.58
2024-03-28T12:39:44.152Z,13.38
2024-03-28T12:40:44.180Z,13.30
2024-03-28T12:41:44.196Z,13.37
2024-03-28T12:42:44.222Z,13.31
2024-03-28T12:43:44.286Z,13.13
2024-03-28T12:44:44.320Z,13.01
2024-03-28T12:45:44.363Z,12.91
2024-03-28T12:46:44.392Z,12.83
2024-03-28T12:47:44.420Z,12.77
2024-03-28T12:48:44.537Z,12.68
2024-03-28T12:49:44.554Z,12.67
2024-03-28T12:50:44.557Z,12.71
2024-03-28T12:51:44.660Z,12.72
2024-03-28T12:52:44.644Z,12.71
2024-03-28T12:53:44.753Z,12.68
2024-03-28T12:54:44.758Z,12.74
2024-03-28T12:55:44.804Z,12.76
2024-03-28T12:56:44.878Z,12.77
2024-03-28T12:57:44.883Z,12.88
2024-03-28T12:58:44.968Z,12.63
2024-03-28T12:59:44.978Z,12.66
2024-03-28T13:00:45.017Z,12.74
2024-03-28T13:01:45.046Z,12.75
2024-03-28T13:02:45.067Z,12.81
2024-03-28T13:03:45.130Z,12.85
2024-03-28T13:04:45.148Z,12.70
2024-03-28T13:05:45.226Z,12.67
2024-03-28T13:06:53.976Z,12.61
2024-03-28T13:07:46.268Z,12.61